sensor_id;sensor_type;location;lat;lon;timestamp;P1;durP1;ratioP1;P2;durP2;ratioP2
6665;SDS011;3369;49.906;8.598;2023-08-08T00:02:15;2.57;;;1.60;;
6665;SDS011;3369;49.906;8.598;2023-08-08T00:04:41;1.83;;;1.70;;
6665;SDS011;3369;49.906;8.598;2023-08-08T00:07:07;1.90;;;1.60;;
6665;SDS011;3369;49.906;8.598;2023-08-08T00:09:33;2.20;;;1.40;;
6665;SDS011;3369;49.906;8.598;2023-08-08T00:11:59;1.53;;;1.40;;
6665;SDS011;3369;49.906;8.598;2023-08-08T00:14:24;1.53;;;1.43;;
6665;SDS011;3369;49.906;8.598;2023-08-08T00:16:50;1.80;;;1.60;;
6665;SDS011;3369;49.906;8.598;2023-08-08T00:19:16;2.80;;;2.00;;
6665;SDS011;3369;49.906;8.598;2023-08-08T00:21:41;3.17;;;1.43;;
6665;SDS011;3369;49.906;8.598;2023-08-08T00:24:07;2.77;;;1.53;;
6665;SDS011;3369;49.906;8.598;2023-08-08T00:26:32;2.20;;;1.60;;
6665;SDS011;3369;49.906;8.598;2023-08-08T00:28:58;1.77;;;1.67;;
6665;SDS011;3369;49.906;8.598;2023-08-08T00:31:24;1.60;;;1.50;;
6665;SDS011;3369;49.906;8.598;2023-08-08T00:33:49;1.60;;;1.50;;
6665;SDS011;3369;49.906;8.598;2023-08-08T00:36:15;1.50;;;1.40;;
6665;SDS011;3369;49.906;8.598;2023-08-08T00:38:40;2.07;;;1.87;;
6665;SDS011;3369;49.906;8.598;2023-08-08T00:41:06;2.13;;;1.93;;
6665;SDS011;3369;49.906;8.598;2023-08-08T00:43:31;1.60;;;1.50;;
6665;SDS011;3369;49.906;8.598;2023-08-08T00:45:58;1.70;;;1.60;;
6665;SDS011;3369;49.906;8.598;2023-08-08T00:48:24;1.50;;;1.40;;
6665;SDS011;3369;49.906;8.598;2023-08-08T00:50:50;1.60;;;1.50;;
6665;SDS011;3369;49.906;8.598;2023-08-08T00:53:16;1.97;;;1.87;;
6665;SDS011;3369;49.906;8.598;2023-08-08T00:55:44;2.17;;;1.97;;
6665;SDS011;3369;49.906;8.598;2023-08-08T00:58:10;1.77;;;1.37;;
6665;SDS011;3369;49.906;8.598;2023-08-08T01:00:36;1.77;;;1.40;;
6665;SDS011;3369;49.906;8.598;2023-08-08T01:03:02;1.60;;;1.50;;
6665;SDS011;3369;49.906;8.598;2023-08-08T01:05:29;1.90;;;1.60;;
6665;SDS011;3369;49.906;8.598;2023-08-08T01:08:03;1.60;;;1.50;;
6665;SDS011;3369;49.906;8.598;2023-08-08T01:10:34;1.70;;;1.60;;
6665;SDS011;3369;49.906;8.598;2023-08-08T01:13:04;1.63;;;1.53;;
6665;SDS011;3369;49.906;8.598;2023-08-08T01:15:33;1.73;;;1.60;;
6665;SDS011;3369;49.906;8.598;2023-08-08T01:18:07;2.00;;;1.70;;
6665;SDS011;3369;49.906;8.598;2023-08-08T01:20:34;1.63;;;1.53;;
6665;SDS011;3369;49.906;8.598;2023-08-08T01:23:19;1.83;;;1.73;;
6665;SDS011;3369;49.906;8.598;2023-08-08T01:25:52;2.57;;;1.40;;
6665;SDS011;3369;49.906;8.598;2023-08-08T01:28:21;8.13;;;2.40;;
6665;SDS011;3369;49.906;8.598;2023-08-08T01:30:47;1.40;;;1.30;;
6665;SDS011;3369;49.906;8.598;2023-08-08T01:33:13;1.90;;;1.80;;
6665;SDS011;3369;49.906;8.598;2023-08-08T01:35:39;3.10;;;1.73;;
6665;SDS011;3369;49.906;8.598;2023-08-08T01:38:11;1.60;;;1.50;;
6665;SDS011;3369;49.906;8.598;2023-08-08T01:40:48;1.50;;;1.40;;
6665;SDS011;3369;49.906;8.598;2023-08-08T01:43:14;1.77;;;1.67;;
6665;SDS011;3369;49.906;8.598;2023-08-08T01:45:40;4.23;;;2.10;;
6665;SDS011;3369;49.906;8.598;2023-08-08T01:48:08;2.03;;;1.83;;
6665;SDS011;3369;49.906;8.598;2023-08-08T01:50:34;2.23;;;1.70;;
6665;SDS011;3369;49.906;8.598;2023-08-08T01:53:01;2.00;;;1.90;;
6665;SDS011;3369;49.906;8.598;2023-08-08T01:55:26;1.67;;;1.57;;
6665;SDS011;3369;49.906;8.598;2023-08-08T01:57:52;1.97;;;1.73;;
6665;SDS011;3369;49.906;8.598;2023-08-08T02:00:17;2.20;;;1.73;;
6665;SDS011;3369;49.906;8.598;2023-08-08T02:02:43;1.50;;;1.40;;
6665;SDS011;3369;49.906;8.598;2023-08-08T02:05:09;3.60;;;2.07;;
6665;SDS011;3369;49.906;8.598;2023-08-08T02:07:34;1.73;;;1.60;;
6665;SDS011;3369;49.906;8.598;2023-08-08T02:10:00;1.80;;;1.70;;
6665;SDS011;3369;49.906;8.598;2023-08-08T02:12:26;3.20;;;1.60;;
6665;SDS011;3369;49.906;8.598;2023-08-08T02:14:53;1.70;;;1.60;;
6665;SDS011;3369;49.906;8.598;2023-08-08T02:17:20;3.17;;;1.83;;
6665;SDS011;3369;49.906;8.598;2023-08-08T02:19:46;1.93;;;1.83;;
6665;SDS011;3369;49.906;8.598;2023-08-08T02:22:11;1.60;;;1.50;;
6665;SDS011;3369;49.906;8.598;2023-08-08T02:24:37;2.13;;;1.83;;
6665;SDS011;3369;49.906;8.598;2023-08-08T02:27:03;3.67;;;1.80;;
6665;SDS011;3369;49.906;8.598;2023-08-08T02:29:29;2.13;;;1.93;;
6665;SDS011;3369;49.906;8.598;2023-08-08T02:31:55;1.80;;;1.70;;
6665;SDS011;3369;49.906;8.598;2023-08-08T02:34:20;2.63;;;1.73;;
6665;SDS011;3369;49.906;8.598;2023-08-08T02:36:46;1.80;;;1.70;;
6665;SDS011;3369;49.906;8.598;2023-08-08T02:39:11;2.23;;;1.70;;
6665;SDS011;3369;49.906;8.598;2023-08-08T02:41:37;2.13;;;1.77;;
6665;SDS011;3369;49.906;8.598;2023-08-08T02:44:03;2.33;;;1.90;;
6665;SDS011;3369;49.906;8.598;2023-08-08T02:46:28;2.07;;;1.80;;
6665;SDS011;3369;49.906;8.598;2023-08-08T02:48:54;2.30;;;1.70;;
6665;SDS011;3369;49.906;8.598;2023-08-08T02:51:19;2.20;;;1.97;;
6665;SDS011;3369;49.906;8.598;2023-08-08T02:53:45;3.97;;;2.07;;
6665;SDS011;3369;49.906;8.598;2023-08-08T02:56:11;1.80;;;1.70;;
6665;SDS011;3369;49.906;8.598;2023-08-08T02:58:36;1.97;;;1.87;;
6665;SDS011;3369;49.906;8.598;2023-08-08T03:01:02;3.73;;;1.83;;
6665;SDS011;3369;49.906;8.598;2023-08-08T03:03:27;1.67;;;1.57;;
6665;SDS011;3369;49.906;8.598;2023-08-08T03:05:53;5.70;;;1.97;;
6665;SDS011;3369;49.906;8.598;2023-08-08T03:08:19;2.23;;;1.87;;
6665;SDS011;3369;49.906;8.598;2023-08-08T03:10:44;6.50;;;1.70;;
6665;SDS011;3369;49.906;8.598;2023-08-08T03:13:10;2.17;;;1.97;;
6665;SDS011;3369;49.906;8.598;2023-08-08T03:15:36;4.07;;;2.03;;
6665;SDS011;3369;49.906;8.598;2023-08-08T03:18:02;2.30;;;1.80;;
6665;SDS011;3369;49.906;8.598;2023-08-08T03:20:28;3.03;;;1.80;;
6665;SDS011;3369;49.906;8.598;2023-08-08T03:22:53;6.37;;;2.53;;
6665;SDS011;3369;49.906;8.598;2023-08-08T03:25:19;2.77;;;2.20;;
6665;SDS011;3369;49.906;8.598;2023-08-08T03:27:45;1.63;;;1.53;;
6665;SDS011;3369;49.906;8.598;2023-08-08T03:30:11;6.60;;;1.87;;
6665;SDS011;3369;49.906;8.598;2023-08-08T03:32:37;2.80;;;1.97;;
6665;SDS011;3369;49.906;8.598;2023-08-08T03:35:02;2.63;;;2.20;;
6665;SDS011;3369;49.906;8.598;2023-08-08T03:37:29;2.70;;;2.20;;
6665;SDS011;3369;49.906;8.598;2023-08-08T03:39:55;3.17;;;1.90;;
6665;SDS011;3369;49.906;8.598;2023-08-08T03:42:20;4.10;;;2.63;;
6665;SDS011;3369;49.906;8.598;2023-08-08T03:44:46;2.40;;;1.70;;
6665;SDS011;3369;49.906;8.598;2023-08-08T03:47:12;2.20;;;2.00;;
6665;SDS011;3369;49.906;8.598;2023-08-08T03:49:37;2.30;;;1.90;;
6665;SDS011;3369;49.906;8.598;2023-08-08T03:52:03;1.93;;;1.80;;
6665;SDS011;3369;49.906;8.598;2023-08-08T03:54:29;2.00;;;1.80;;
6665;SDS011;3369;49.906;8.598;2023-08-08T03:56:54;2.20;;;2.10;;
6665;SDS011;3369;49.906;8.598;2023-08-08T03:59:20;2.37;;;1.97;;
6665;SDS011;3369;49.906;8.598;2023-08-08T04:01:45;4.03;;;1.93;;
6665;SDS011;3369;49.906;8.598;2023-08-08T04:04:11;2.57;;;2.20;;
6665;SDS011;3369;49.906;8.598;2023-08-08T04:06:36;2.40;;;2.20;;
6665;SDS011;3369;49.906;8.598;2023-08-08T04:09:02;2.53;;;2.20;;
6665;SDS011;3369;49.906;8.598;2023-08-08T04:11:28;5.10;;;2.20;;
6665;SDS011;3369;49.906;8.598;2023-08-08T04:13:53;2.60;;;2.37;;
6665;SDS011;3369;49.906;8.598;2023-08-08T04:16:19;2.60;;;2.00;;
6665;SDS011;3369;49.906;8.598;2023-08-08T04:18:45;2.57;;;2.23;;
6665;SDS011;3369;49.906;8.598;2023-08-08T04:21:10;2.70;;;2.17;;
6665;SDS011;3369;49.906;8.598;2023-08-08T04:23:36;2.33;;;2.07;;
6665;SDS011;3369;49.906;8.598;2023-08-08T04:26:01;2.57;;;2.00;;
6665;SDS011;3369;49.906;8.598;2023-08-08T04:28:27;3.73;;;2.33;;
6665;SDS011;3369;49.906;8.598;2023-08-08T04:30:53;2.40;;;2.20;;
6665;SDS011;3369;49.906;8.598;2023-08-08T04:33:18;2.67;;;2.10;;
6665;SDS011;3369;49.906;8.598;2023-08-08T04:35:44;2.27;;;2.07;;
6665;SDS011;3369;49.906;8.598;2023-08-08T04:38:09;2.23;;;2.03;;
6665;SDS011;3369;49.906;8.598;2023-08-08T04:40:35;2.93;;;2.37;;
6665;SDS011;3369;49.906;8.598;2023-08-08T04:43:01;2.07;;;1.80;;
6665;SDS011;3369;49.906;8.598;2023-08-08T04:45:26;3.60;;;2.20;;
6665;SDS011;3369;49.906;8.598;2023-08-08T04:47:54;3.43;;;1.90;;
6665;SDS011;3369;49.906;8.598;2023-08-08T04:50:20;2.10;;;1.90;;
6665;SDS011;3369;49.906;8.598;2023-08-08T04:52:45;2.87;;;1.93;;
6665;SDS011;3369;49.906;8.598;2023-08-08T04:55:11;2.90;;;1.80;;
6665;SDS011;3369;49.906;8.598;2023-08-08T04:57:36;2.33;;;2.00;;
6665;SDS011;3369;49.906;8.598;2023-08-08T05:00:02;3.00;;;2.40;;
6665;SDS011;3369;49.906;8.598;2023-08-08T05:02:30;6.03;;;2.20;;
6665;SDS011;3369;49.906;8.598;2023-08-08T05:04:56;3.40;;;2.23;;
6665;SDS011;3369;49.906;8.598;2023-08-08T05:07:22;6.10;;;3.23;;
6665;SDS011;3369;49.906;8.598;2023-08-08T05:09:47;5.10;;;2.00;;
6665;SDS011;3369;49.906;8.598;2023-08-08T05:12:13;4.27;;;3.20;;
6665;SDS011;3369;49.906;8.598;2023-08-08T05:14:38;4.07;;;2.47;;
6665;SDS011;3369;49.906;8.598;2023-08-08T05:17:04;2.23;;;2.00;;
6665;SDS011;3369;49.906;8.598;2023-08-08T05:19:30;2.20;;;1.87;;
6665;SDS011;3369;49.906;8.598;2023-08-08T05:21:55;2.40;;;2.10;;
6665;SDS011;3369;49.906;8.598;2023-08-08T05:24:21;5.90;;;2.43;;
6665;SDS011;3369;49.906;8.598;2023-08-08T05:26:46;2.97;;;2.13;;
6665;SDS011;3369;49.906;8.598;2023-08-08T05:29:12;4.23;;;2.60;;
6665;SDS011;3369;49.906;8.598;2023-08-08T05:31:38;4.93;;;2.33;;
6665;SDS011;3369;49.906;8.598;2023-08-08T05:34:03;5.30;;;2.20;;
6665;SDS011;3369;49.906;8.598;2023-08-08T05:36:30;2.33;;;1.80;;
6665;SDS011;3369;49.906;8.598;2023-08-08T05:38:56;2.83;;;2.07;;
6665;SDS011;3369;49.906;8.598;2023-08-08T05:41:21;3.17;;;2.10;;
6665;SDS011;3369;49.906;8.598;2023-08-08T05:43:47;2.73;;;1.70;;
6665;SDS011;3369;49.906;8.598;2023-08-08T05:46:12;4.50;;;2.17;;
6665;SDS011;3369;49.906;8.598;2023-08-08T05:48:38;3.87;;;2.40;;
6665;SDS011;3369;49.906;8.598;2023-08-08T05:51:03;4.23;;;2.13;;
6665;SDS011;3369;49.906;8.598;2023-08-08T05:53:30;4.77;;;2.10;;
6665;SDS011;3369;49.906;8.598;2023-08-08T05:55:56;2.87;;;1.90;;
6665;SDS011;3369;49.906;8.598;2023-08-08T05:58:22;5.60;;;2.20;;
6665;SDS011;3369;49.906;8.598;2023-08-08T06:00:47;3.93;;;2.73;;
6665;SDS011;3369;49.906;8.598;2023-08-08T06:03:13;2.20;;;2.00;;
6665;SDS011;3369;49.906;8.598;2023-08-08T06:05:38;2.63;;;2.10;;
6665;SDS011;3369;49.906;8.598;2023-08-08T06:08:04;3.13;;;2.00;;
6665;SDS011;3369;49.906;8.598;2023-08-08T06:10:32;2.73;;;2.23;;
6665;SDS011;3369;49.906;8.598;2023-08-08T06:12:59;2.47;;;1.57;;
6665;SDS011;3369;49.906;8.598;2023-08-08T06:15:25;2.17;;;1.73;;
6665;SDS011;3369;49.906;8.598;2023-08-08T06:17:50;2.07;;;1.73;;
6665;SDS011;3369;49.906;8.598;2023-08-08T06:20:16;2.30;;;1.93;;
6665;SDS011;3369;49.906;8.598;2023-08-08T06:22:42;2.93;;;1.97;;
6665;SDS011;3369;49.906;8.598;2023-08-08T06:25:07;2.43;;;1.73;;
6665;SDS011;3369;49.906;8.598;2023-08-08T06:27:33;2.60;;;1.97;;
6665;SDS011;3369;49.906;8.598;2023-08-08T06:29:59;3.73;;;1.70;;
6665;SDS011;3369;49.906;8.598;2023-08-08T06:32:24;3.20;;;2.00;;
6665;SDS011;3369;49.906;8.598;2023-08-08T06:34:50;3.27;;;1.97;;
6665;SDS011;3369;49.906;8.598;2023-08-08T06:37:15;2.40;;;2.00;;
6665;SDS011;3369;49.906;8.598;2023-08-08T06:39:41;2.87;;;1.90;;
6665;SDS011;3369;49.906;8.598;2023-08-08T06:42:07;2.43;;;1.97;;
6665;SDS011;3369;49.906;8.598;2023-08-08T06:44:32;3.50;;;2.00;;
6665;SDS011;3369;49.906;8.598;2023-08-08T06:47:05;2.77;;;1.80;;
6665;SDS011;3369;49.906;8.598;2023-08-08T06:49:31;4.40;;;1.67;;
6665;SDS011;3369;49.906;8.598;2023-08-08T06:51:56;2.00;;;1.70;;
6665;SDS011;3369;49.906;8.598;2023-08-08T06:54:22;2.63;;;1.57;;
6665;SDS011;3369;49.906;8.598;2023-08-08T06:56:47;4.13;;;1.80;;
6665;SDS011;3369;49.906;8.598;2023-08-08T06:59:13;5.03;;;1.80;;
6665;SDS011;3369;49.906;8.598;2023-08-08T07:01:38;2.53;;;1.70;;
6665;SDS011;3369;49.906;8.598;2023-08-08T07:04:05;4.20;;;1.80;;
6665;SDS011;3369;49.906;8.598;2023-08-08T07:06:30;2.33;;;1.73;;
6665;SDS011;3369;49.906;8.598;2023-08-08T07:08:56;3.60;;;1.40;;
6665;SDS011;3369;49.906;8.598;2023-08-08T07:11:22;3.83;;;1.80;;
6665;SDS011;3369;49.906;8.598;2023-08-08T07:13:49;3.00;;;1.70;;
6665;SDS011;3369;49.906;8.598;2023-08-08T07:16:15;2.23;;;1.70;;
6665;SDS011;3369;49.906;8.598;2023-08-08T07:18:40;5.90;;;1.90;;
6665;SDS011;3369;49.906;8.598;2023-08-08T07:21:06;2.50;;;1.70;;
6665;SDS011;3369;49.906;8.598;2023-08-08T07:23:32;1.43;;;1.30;;
6665;SDS011;3369;49.906;8.598;2023-08-08T07:25:57;3.23;;;1.43;;
6665;SDS011;3369;49.906;8.598;2023-08-08T07:28:23;2.07;;;1.87;;
6665;SDS011;3369;49.906;8.598;2023-08-08T07:30:49;3.67;;;1.30;;
6665;SDS011;3369;49.906;8.598;2023-08-08T07:33:14;4.23;;;1.73;;
6665;SDS011;3369;49.906;8.598;2023-08-08T07:35:40;2.53;;;1.20;;
6665;SDS011;3369;49.906;8.598;2023-08-08T07:38:05;1.40;;;1.20;;
6665;SDS011;3369;49.906;8.598;2023-08-08T07:40:31;1.80;;;1.20;;
6665;SDS011;3369;49.906;8.598;2023-08-08T07:42:58;1.87;;;1.20;;
6665;SDS011;3369;49.906;8.598;2023-08-08T07:45:23;3.97;;;1.30;;
6665;SDS011;3369;49.906;8.598;2023-08-08T07:47:49;3.13;;;1.30;;
6665;SDS011;3369;49.906;8.598;2023-08-08T07:50:15;2.43;;;1.13;;
6665;SDS011;3369;49.906;8.598;2023-08-08T07:52:41;2.10;;;1.50;;
6665;SDS011;3369;49.906;8.598;2023-08-08T07:55:07;1.47;;;1.30;;
6665;SDS011;3369;49.906;8.598;2023-08-08T07:57:33;3.17;;;1.30;;
6665;SDS011;3369;49.906;8.598;2023-08-08T07:59:59;2.73;;;1.20;;
6665;SDS011;3369;49.906;8.598;2023-08-08T08:02:32;3.10;;;1.37;;
6665;SDS011;3369;49.906;8.598;2023-08-08T08:04:58;2.30;;;1.37;;
6665;SDS011;3369;49.906;8.598;2023-08-08T08:07:23;1.30;;;1.20;;
6665;SDS011;3369;49.906;8.598;2023-08-08T08:09:49;1.53;;;1.43;;
6665;SDS011;3369;49.906;8.598;2023-08-08T08:12:15;1.83;;;1.20;;
6665;SDS011;3369;49.906;8.598;2023-08-08T08:14:40;1.60;;;1.20;;
6665;SDS011;3369;49.906;8.598;2023-08-08T08:17:06;6.97;;;1.40;;
6665;SDS011;3369;49.906;8.598;2023-08-08T08:19:32;1.20;;;1.10;;
6665;SDS011;3369;49.906;8.598;2023-08-08T08:21:57;1.47;;;1.00;;
6665;SDS011;3369;49.906;8.598;2023-08-08T08:24:23;1.77;;;1.13;;
6665;SDS011;3369;49.906;8.598;2023-08-08T08:26:48;2.20;;;1.00;;
6665;SDS011;3369;49.906;8.598;2023-08-08T08:29:14;2.60;;;1.07;;
6665;SDS011;3369;49.906;8.598;2023-08-08T08:31:39;1.90;;;0.90;;
6665;SDS011;3369;49.906;8.598;2023-08-08T08:34:05;2.30;;;1.03;;
6665;SDS011;3369;49.906;8.598;2023-08-08T08:36:31;1.33;;;1.03;;
6665;SDS011;3369;49.906;8.598;2023-08-08T08:38:56;1.60;;;1.00;;
6665;SDS011;3369;49.906;8.598;2023-08-08T08:41:25;1.80;;;1.30;;
6665;SDS011;3369;49.906;8.598;2023-08-08T08:43:53;1.80;;;1.23;;
6665;SDS011;3369;49.906;8.598;2023-08-08T08:46:20;2.80;;;1.10;;
6665;SDS011;3369;49.906;8.598;2023-08-08T08:48:49;1.20;;;1.00;;
6665;SDS011;3369;49.906;8.598;2023-08-08T08:51:17;2.10;;;1.00;;
6665;SDS011;3369;49.906;8.598;2023-08-08T08:53:43;2.83;;;1.20;;
6665;SDS011;3369;49.906;8.598;2023-08-08T08:56:11;3.10;;;1.03;;
6665;SDS011;3369;49.906;8.598;2023-08-08T08:58:41;0.80;;;0.80;;
6665;SDS011;3369;49.906;8.598;2023-08-08T09:01:07;1.63;;;1.00;;
6665;SDS011;3369;49.906;8.598;2023-08-08T09:03:34;2.30;;;1.10;;
6665;SDS011;3369;49.906;8.598;2023-08-08T09:06:04;2.00;;;1.00;;
6665;SDS011;3369;49.906;8.598;2023-08-08T09:08:30;1.37;;;1.00;;
6665;SDS011;3369;49.906;8.598;2023-08-08T09:10:56;1.60;;;1.13;;
6665;SDS011;3369;49.906;8.598;2023-08-08T09:13:22;3.57;;;1.40;;
6665;SDS011;3369;49.906;8.598;2023-08-08T09:15:51;2.63;;;1.23;;
6665;SDS011;3369;49.906;8.598;2023-08-08T09:18:17;3.37;;;1.37;;
6665;SDS011;3369;49.906;8.598;2023-08-08T09:20:49;2.53;;;0.90;;
6665;SDS011;3369;49.906;8.598;2023-08-08T09:23:15;1.63;;;1.00;;
6665;SDS011;3369;49.906;8.598;2023-08-08T09:25:41;1.37;;;0.90;;
6665;SDS011;3369;49.906;8.598;2023-08-08T09:28:07;2.27;;;1.13;;
6665;SDS011;3369;49.906;8.598;2023-08-08T09:30:33;1.97;;;1.20;;
6665;SDS011;3369;49.906;8.598;2023-08-08T09:32:59;1.10;;;1.00;;
6665;SDS011;3369;49.906;8.598;2023-08-08T09:35:26;1.30;;;1.20;;
6665;SDS011;3369;49.906;8.598;2023-08-08T09:37:54;1.67;;;0.80;;
6665;SDS011;3369;49.906;8.598;2023-08-08T09:40:22;2.10;;;1.10;;
6665;SDS011;3369;49.906;8.598;2023-08-08T09:42:50;2.10;;;1.30;;
6665;SDS011;3369;49.906;8.598;2023-08-08T09:45:17;1.50;;;1.10;;
6665;SDS011;3369;49.906;8.598;2023-08-08T09:47:43;1.53;;;1.07;;
6665;SDS011;3369;49.906;8.598;2023-08-08T09:50:08;1.53;;;0.90;;
6665;SDS011;3369;49.906;8.598;2023-08-08T09:52:34;3.57;;;1.40;;
6665;SDS011;3369;49.906;8.598;2023-08-08T09:55:01;2.27;;;1.20;;
6665;SDS011;3369;49.906;8.598;2023-08-08T09:57:28;2.40;;;1.20;;
6665;SDS011;3369;49.906;8.598;2023-08-08T09:59:54;1.97;;;1.20;;
6665;SDS011;3369;49.906;8.598;2023-08-08T10:02:20;1.50;;;1.00;;
6665;SDS011;3369;49.906;8.598;2023-08-08T10:04:46;1.83;;;1.10;;
6665;SDS011;3369;49.906;8.598;2023-08-08T10:07:13;2.30;;;1.20;;
6665;SDS011;3369;49.906;8.598;2023-08-08T10:09:39;1.13;;;1.00;;
6665;SDS011;3369;49.906;8.598;2023-08-08T10:12:06;3.63;;;1.40;;
6665;SDS011;3369;49.906;8.598;2023-08-08T10:14:34;2.17;;;1.30;;
6665;SDS011;3369;49.906;8.598;2023-08-08T10:17:04;1.87;;;1.00;;
6665;SDS011;3369;49.906;8.598;2023-08-08T10:19:31;1.50;;;1.10;;
6665;SDS011;3369;49.906;8.598;2023-08-08T10:21:58;3.27;;;1.40;;
6665;SDS011;3369;49.906;8.598;2023-08-08T10:24:32;3.60;;;1.27;;
6665;SDS011;3369;49.906;8.598;2023-08-08T10:27:00;1.20;;;1.00;;
6665;SDS011;3369;49.906;8.598;2023-08-08T10:29:27;2.50;;;1.37;;
6665;SDS011;3369;49.906;8.598;2023-08-08T10:32:02;2.17;;;1.10;;
6665;SDS011;3369;49.906;8.598;2023-08-08T10:34:39;1.53;;;1.17;;
6665;SDS011;3369;49.906;8.598;2023-08-08T10:37:09;1.77;;;1.37;;
6665;SDS011;3369;49.906;8.598;2023-08-08T10:42:20;2.77;;;1.20;;
6665;SDS011;3369;49.906;8.598;2023-08-08T10:44:52;1.37;;;1.10;;
6665;SDS011;3369;49.906;8.598;2023-08-08T10:47:26;1.70;;;1.03;;
6665;SDS011;3369;49.906;8.598;2023-08-08T10:49:59;1.90;;;1.20;;
6665;SDS011;3369;49.906;8.598;2023-08-08T10:52:30;1.70;;;1.37;;
6665;SDS011;3369;49.906;8.598;2023-08-08T10:54:55;2.23;;;1.30;;
6665;SDS011;3369;49.906;8.598;2023-08-08T10:57:24;1.57;;;1.20;;
6665;SDS011;3369;49.906;8.598;2023-08-08T10:59:50;2.20;;;1.20;;
6665;SDS011;3369;49.906;8.598;2023-08-08T11:02:16;2.17;;;1.00;;
6665;SDS011;3369;49.906;8.598;2023-08-08T11:04:43;1.77;;;1.00;;
6665;SDS011;3369;49.906;8.598;2023-08-08T11:07:10;1.83;;;1.23;;
6665;SDS011;3369;49.906;8.598;2023-08-08T11:09:36;3.50;;;1.40;;
6665;SDS011;3369;49.906;8.598;2023-08-08T11:12:01;3.43;;;1.00;;
6665;SDS011;3369;49.906;8.598;2023-08-08T11:14:27;1.67;;;1.00;;
6665;SDS011;3369;49.906;8.598;2023-08-08T11:16:53;1.90;;;1.20;;
6665;SDS011;3369;49.906;8.598;2023-08-08T11:19:19;3.50;;;1.40;;
6665;SDS011;3369;49.906;8.598;2023-08-08T11:21:45;1.67;;;1.20;;
6665;SDS011;3369;49.906;8.598;2023-08-08T11:24:12;2.67;;;1.23;;
6665;SDS011;3369;49.906;8.598;2023-08-08T11:26:42;2.83;;;1.10;;
6665;SDS011;3369;49.906;8.598;2023-08-08T11:29:10;1.23;;;1.13;;
6665;SDS011;3369;49.906;8.598;2023-08-08T11:31:35;2.07;;;1.27;;
6665;SDS011;3369;49.906;8.598;2023-08-08T11:34:02;2.03;;;1.33;;
6665;SDS011;3369;49.906;8.598;2023-08-08T11:36:30;3.10;;;1.30;;
6665;SDS011;3369;49.906;8.598;2023-08-08T11:38:58;2.83;;;1.13;;
6665;SDS011;3369;49.906;8.598;2023-08-08T11:41:26;3.00;;;1.40;;
6665;SDS011;3369;49.906;8.598;2023-08-08T11:43:52;1.93;;;1.47;;
6665;SDS011;3369;49.906;8.598;2023-08-08T11:46:19;4.20;;;1.70;;
6665;SDS011;3369;49.906;8.598;2023-08-08T11:48:49;2.70;;;1.50;;
6665;SDS011;3369;49.906;8.598;2023-08-08T11:51:15;2.50;;;1.43;;
6665;SDS011;3369;49.906;8.598;2023-08-08T11:53:51;1.57;;;0.97;;
6665;SDS011;3369;49.906;8.598;2023-08-08T11:56:20;1.30;;;1.20;;
6665;SDS011;3369;49.906;8.598;2023-08-08T11:58:50;1.00;;;0.90;;
6665;SDS011;3369;49.906;8.598;2023-08-08T12:01:19;1.47;;;1.00;;
6665;SDS011;3369;49.906;8.598;2023-08-08T12:03:45;2.53;;;1.27;;
6665;SDS011;3369;49.906;8.598;2023-08-08T12:06:15;3.00;;;1.60;;
6665;SDS011;3369;49.906;8.598;2023-08-08T12:08:44;2.80;;;1.10;;
6665;SDS011;3369;49.906;8.598;2023-08-08T12:11:12;5.60;;;1.60;;
6665;SDS011;3369;49.906;8.598;2023-08-08T12:13:42;5.07;;;1.73;;
6665;SDS011;3369;49.906;8.598;2023-08-08T12:16:09;2.80;;;1.30;;
6665;SDS011;3369;49.906;8.598;2023-08-08T12:18:36;2.23;;;1.20;;
6665;SDS011;3369;49.906;8.598;2023-08-08T12:21:03;2.77;;;1.27;;
6665;SDS011;3369;49.906;8.598;2023-08-08T12:23:30;1.77;;;1.20;;
6665;SDS011;3369;49.906;8.598;2023-08-08T12:25:56;1.63;;;1.23;;
6665;SDS011;3369;49.906;8.598;2023-08-08T12:28:22;2.60;;;1.00;;
6665;SDS011;3369;49.906;8.598;2023-08-08T12:30:48;4.00;;;1.33;;
6665;SDS011;3369;49.906;8.598;2023-08-08T12:33:14;3.27;;;1.20;;
6665;SDS011;3369;49.906;8.598;2023-08-08T12:35:39;1.30;;;1.20;;
6665;SDS011;3369;49.906;8.598;2023-08-08T12:38:05;3.23;;;1.10;;
6665;SDS011;3369;49.906;8.598;2023-08-08T12:40:30;5.07;;;1.27;;
6665;SDS011;3369;49.906;8.598;2023-08-08T12:42:56;1.77;;;1.20;;
6665;SDS011;3369;49.906;8.598;2023-08-08T12:45:22;3.77;;;1.17;;
6665;SDS011;3369;49.906;8.598;2023-08-08T12:47:47;1.53;;;1.00;;
6665;SDS011;3369;49.906;8.598;2023-08-08T12:50:13;1.97;;;1.30;;
6665;SDS011;3369;49.906;8.598;2023-08-08T12:52:39;1.53;;;1.20;;
6665;SDS011;3369;49.906;8.598;2023-08-08T12:55:05;1.53;;;1.40;;
6665;SDS011;3369;49.906;8.598;2023-08-08T12:57:32;2.27;;;1.20;;
6665;SDS011;3369;49.906;8.598;2023-08-08T12:59:58;2.50;;;1.37;;
6665;SDS011;3369;49.906;8.598;2023-08-08T13:02:24;1.27;;;1.10;;
6665;SDS011;3369;49.906;8.598;2023-08-08T13:04:49;4.10;;;1.37;;
6665;SDS011;3369;49.906;8.598;2023-08-08T13:07:15;1.60;;;1.00;;
6665;SDS011;3369;49.906;8.598;2023-08-08T13:09:41;1.80;;;1.23;;
6665;SDS011;3369;49.906;8.598;2023-08-08T13:12:06;1.17;;;1.07;;
6665;SDS011;3369;49.906;8.598;2023-08-08T13:14:32;1.87;;;1.07;;
6665;SDS011;3369;49.906;8.598;2023-08-08T13:16:58;1.10;;;0.80;;
6665;SDS011;3369;49.906;8.598;2023-08-08T13:19:24;1.20;;;1.10;;
6665;SDS011;3369;49.906;8.598;2023-08-08T13:21:53;1.73;;;1.33;;
6665;SDS011;3369;49.906;8.598;2023-08-08T13:24:19;1.77;;;1.20;;
6665;SDS011;3369;49.906;8.598;2023-08-08T13:26:49;3.90;;;1.30;;
6665;SDS011;3369;49.906;8.598;2023-08-08T13:29:15;1.53;;;1.13;;
6665;SDS011;3369;49.906;8.598;2023-08-08T13:31:41;1.80;;;1.10;;
6665;SDS011;3369;49.906;8.598;2023-08-08T13:34:06;1.20;;;1.10;;
6665;SDS011;3369;49.906;8.598;2023-08-08T13:36:32;3.40;;;1.30;;
6665;SDS011;3369;49.906;8.598;2023-08-08T13:38:57;2.23;;;1.20;;
6665;SDS011;3369;49.906;8.598;2023-08-08T13:41:23;1.53;;;0.87;;
6665;SDS011;3369;49.906;8.598;2023-08-08T13:43:49;2.40;;;1.33;;
6665;SDS011;3369;49.906;8.598;2023-08-08T13:46:15;1.20;;;1.10;;
6665;SDS011;3369;49.906;8.598;2023-08-08T13:48:41;1.20;;;1.10;;
6665;SDS011;3369;49.906;8.598;2023-08-08T13:51:06;2.20;;;1.40;;
6665;SDS011;3369;49.906;8.598;2023-08-08T13:53:32;1.97;;;1.23;;
6665;SDS011;3369;49.906;8.598;2023-08-08T13:55:59;4.43;;;1.30;;
6665;SDS011;3369;49.906;8.598;2023-08-08T13:58:24;2.63;;;1.20;;
6665;SDS011;3369;49.906;8.598;2023-08-08T14:00:50;1.73;;;1.50;;
6665;SDS011;3369;49.906;8.598;2023-08-08T14:03:16;2.20;;;1.20;;
6665;SDS011;3369;49.906;8.598;2023-08-08T14:05:42;2.37;;;1.10;;
6665;SDS011;3369;49.906;8.598;2023-08-08T14:08:08;2.30;;;1.13;;
6665;SDS011;3369;49.906;8.598;2023-08-08T14:10:35;2.53;;;1.67;;
6665;SDS011;3369;49.906;8.598;2023-08-08T14:13:01;1.60;;;1.03;;
6665;SDS011;3369;49.906;8.598;2023-08-08T14:15:27;3.03;;;1.00;;
6665;SDS011;3369;49.906;8.598;2023-08-08T14:17:53;1.50;;;1.00;;
6665;SDS011;3369;49.906;8.598;2023-08-08T14:20:19;1.90;;;1.00;;
6665;SDS011;3369;49.906;8.598;2023-08-08T14:22:45;1.53;;;1.10;;
6665;SDS011;3369;49.906;8.598;2023-08-08T14:25:12;1.77;;;1.00;;
6665;SDS011;3369;49.906;8.598;2023-08-08T14:27:38;1.20;;;1.10;;
6665;SDS011;3369;49.906;8.598;2023-08-08T14:30:03;2.07;;;1.00;;
6665;SDS011;3369;49.906;8.598;2023-08-08T14:32:29;1.40;;;0.90;;
6665;SDS011;3369;49.906;8.598;2023-08-08T14:34:55;2.30;;;1.30;;
6665;SDS011;3369;49.906;8.598;2023-08-08T14:37:20;2.97;;;1.17;;
6665;SDS011;3369;49.906;8.598;2023-08-08T14:39:46;5.67;;;1.20;;
6665;SDS011;3369;49.906;8.598;2023-08-08T14:42:12;2.13;;;1.00;;
6665;SDS011;3369;49.906;8.598;2023-08-08T14:44:38;4.40;;;1.20;;
6665;SDS011;3369;49.906;8.598;2023-08-08T14:47:04;1.87;;;1.07;;
6665;SDS011;3369;49.906;8.598;2023-08-08T14:49:30;1.30;;;1.00;;
6665;SDS011;3369;49.906;8.598;2023-08-08T14:51:55;1.73;;;0.80;;
6665;SDS011;3369;49.906;8.598;2023-08-08T14:54:21;4.00;;;1.00;;
6665;SDS011;3369;49.906;8.598;2023-08-08T14:56:47;2.07;;;1.10;;
6665;SDS011;3369;49.906;8.598;2023-08-08T14:59:13;1.70;;;1.10;;
6665;SDS011;3369;49.906;8.598;2023-08-08T15:01:38;2.03;;;0.97;;
6665;SDS011;3369;49.906;8.598;2023-08-08T15:04:04;3.30;;;1.17;;
6665;SDS011;3369;49.906;8.598;2023-08-08T15:06:30;3.60;;;0.80;;
6665;SDS011;3369;49.906;8.598;2023-08-08T15:08:57;6.17;;;1.73;;
6665;SDS011;3369;49.906;8.598;2023-08-08T15:11:22;2.37;;;1.10;;
6665;SDS011;3369;49.906;8.598;2023-08-08T15:13:48;2.33;;;1.00;;